Terminal Aerodrome Forecast
Issued by NWS Wakefield, VA

Home | Current Version | Previous Version | Text Only | Print | Product List | Glossary On
Versions: 1 2 3 4 5 6
000
FTUS41 KAKQ 272300
TAFRIC
TAF
KRIC 272320Z 2800/2824 17005KT P6SM BKN250
     FM280400 19004KT P6SM BKN100
     FM281500 23008KT P6SM -RA OVC070
     FM282000 25011KT 3SM -RA BR OVC035=

USA.gov is the U.S. government's official web portal to all federal, state and local government web resources and services.